SADFSABE

Guest
Details From SADF - San Fernando
To SABE - Aeroparque Jorge Newbery
Flight Number -
Tags Generated
Created
Modified
Stats Distance 10 nm / 19 km
Max Altitude 0 ft / 0 m
Waypoints 2
Social Downloads 1
Likes 0
Share VATSIM

Download

Looking for another format? Having issues loading an existing format? Contact us
Advertisement - Login to hide

Notes

Generated

Route

SADF SABE

ID Type Via Altitude Latitude Longitude Leg Dist Tot Dist Heading (true) Name
O SADF APT - 0 ft / 0 m -34.45986˚ -58.59704˚ - 0 nm - -
O SABE APT - 0 ft / 0 m -34.55416˚ -58.42526˚ 10 nm 10 nm 124° / 124° -

Altitude Profile

Advertisement - Login to hide

SADF

Details ICAO SADF
Name San Fernando
Region Argentina
Timezone America/Argentina/Buenos_Aires (UTC-3.0)
Stats Elevation 10 ft / 3 m (AMSL)
Location -34.454044° -58.590226°
Runways 1
Magnetic Variation 8.967° W

METAR

SADF 271800Z 00000KT 9000 NSC 23/12 Q1015

Decode

TAF

TAF SADF 271700Z 2718/2818 VRB05KT 8000 FEW030 SCT100 TX22/2818Z TN18/2810Z BECMG 2720/2722 09005KT BECMG 2803/2805 02010KT 9999 SCT020 BKN100 BECMG 2810/2812 7000 RA BKN020 FEW040TCU OVC050 TEMPO 2814/2818 36015KT 5000 TSRA BKN015 FEW040CB OVC050

Decode

Departure Runways

ID Width Length Bearing (true) Bearing (mag) Surface Threshold Offset Overrun Length
05 131 ft / 40 m 5,904 ft / 1,800 m 44.03° 53.00° Asphalt 0 ft / 0 m 0 ft / 0 m
23 131 ft / 40 m 5,904 ft / 1,800 m 224.02° 232.99° Asphalt 899 ft / 274 m 0 ft / 0 m

SABE

Details ICAO SABE (AEP)
Name Aeroparque Jorge Newbery
Region Argentina
Timezone Unknown (UTC+0.0)
Stats Elevation 17 ft / 5 m (AMSL)
Location -34.559414° -58.415749°
Runways 1
Magnetic Variation 9.055° W

METAR

SABE 271800Z 02004KT CAVOK 21/16 Q1016 NOSIG

Decode

TAF

TAF SABE 271700Z 2718/2818 36005KT 9999 SCT040 BKN100 TX24/2818Z TN17/2712Z BECMG 2723/2802 07010KT 9999 BKN025 OVC040 BECMG 2807/2809 02015G25KT 9999 BKN015 BKN040 TEMPO 2808/2818 7000 RA BKN010 BKN040

Decode

Destination Runways

ID Width Length Bearing (true) Bearing (mag) Surface Threshold Offset Overrun Length
13 131 ft / 40 m 6,882 ft / 2,098 m 123.87° 132.93° Concrete 0 ft / 0 m 791 ft / 241 m
31 131 ft / 40 m 6,882 ft / 2,098 m 303.86° 312.92° Concrete 991 ft / 302 m 0 ft / 0 m

Approach Navaids

Runway Type Ident Frequency Range Bearing (true) Bearing (mag) Slope Elevation
13 Localiser AE 109.50 MHz 18 nm / 33 km 123.95° 133.01° - 17 ft / 5 m (AMSL)
13 Glidescope AE 109.50 MHz 10 nm / 19 km 124.47° 133.52° 3.00° 17 ft / 5 m (AMSL)
13 DME AE 109.50 MHz 18 nm / 33 km - - - 17 ft / 5 m (AMSL)

Popular Alternatives